sensor_id;sensor_type;location;lat;lon;timestamp;P1;durP1;ratioP1;P2;durP2;ratioP2
47896;SDS011;39629;51.400;5.494;2022-07-30T00:01:23;4.50;;;2.03;;
47896;SDS011;39629;51.400;5.494;2022-07-30T00:06:25;3.63;;;1.98;;
47896;SDS011;39629;51.400;5.494;2022-07-30T00:11:26;6.45;;;2.20;;
47896;SDS011;39629;51.400;5.494;2022-07-30T00:16:29;6.50;;;2.38;;
47896;SDS011;39629;51.400;5.494;2022-07-30T00:21:31;5.10;;;2.42;;
47896;SDS011;39629;51.400;5.494;2022-07-30T00:26:32;7.03;;;2.20;;
47896;SDS011;39629;51.400;5.494;2022-07-30T00:31:36;4.82;;;2.15;;
47896;SDS011;39629;51.400;5.494;2022-07-30T00:36:37;5.50;;;2.28;;
47896;SDS011;39629;51.400;5.494;2022-07-30T00:41:52;4.55;;;2.20;;
47896;SDS011;39629;51.400;5.494;2022-07-30T00:46:56;6.63;;;2.42;;
47896;SDS011;39629;51.400;5.494;2022-07-30T00:51:57;8.45;;;2.60;;
47896;SDS011;39629;51.400;5.494;2022-07-30T00:56:59;8.90;;;2.97;;
47896;SDS011;39629;51.400;5.494;2022-07-30T01:02:02;8.75;;;2.97;;
47896;SDS011;39629;51.400;5.494;2022-07-30T01:07:04;7.70;;;3.45;;
47896;SDS011;39629;51.400;5.494;2022-07-30T01:12:06;6.38;;;3.10;;
47896;SDS011;39629;51.400;5.494;2022-07-30T01:17:11;7.67;;;3.43;;
47896;SDS011;39629;51.400;5.494;2022-07-30T01:22:15;6.60;;;3.13;;
47896;SDS011;39629;51.400;5.494;2022-07-30T01:27:23;8.75;;;3.95;;
47896;SDS011;39629;51.400;5.494;2022-07-30T01:32:28;5.38;;;3.35;;
47896;SDS011;39629;51.400;5.494;2022-07-30T01:37:31;7.55;;;3.30;;
47896;SDS011;39629;51.400;5.494;2022-07-30T01:42:36;5.97;;;3.30;;
47896;SDS011;39629;51.400;5.494;2022-07-30T01:47:40;5.82;;;3.65;;
47896;SDS011;39629;51.400;5.494;2022-07-30T01:57:48;8.13;;;4.18;;
47896;SDS011;39629;51.400;5.494;2022-07-30T02:02:52;7.75;;;3.50;;
47896;SDS011;39629;51.400;5.494;2022-07-30T02:07:56;7.10;;;3.78;;
47896;SDS011;39629;51.400;5.494;2022-07-30T02:13:03;7.40;;;3.90;;
47896;SDS011;39629;51.400;5.494;2022-07-30T02:18:09;10.63;;;5.05;;
47896;SDS011;39629;51.400;5.494;2022-07-30T02:23:15;10.77;;;5.40;;
47896;SDS011;39629;51.400;5.494;2022-07-30T02:28:20;8.68;;;5.05;;
47896;SDS011;39629;51.400;5.494;2022-07-30T02:33:25;8.63;;;4.45;;
47896;SDS011;39629;51.400;5.494;2022-07-30T02:38:32;7.75;;;4.68;;
47896;SDS011;39629;51.400;5.494;2022-07-30T02:43:36;9.73;;;5.05;;
47896;SDS011;39629;51.400;5.494;2022-07-30T02:48:42;8.10;;;4.35;;
47896;SDS011;39629;51.400;5.494;2022-07-30T02:53:46;8.80;;;5.40;;
47896;SDS011;39629;51.400;5.494;2022-07-30T02:58:51;10.35;;;6.15;;
47896;SDS011;39629;51.400;5.494;2022-07-30T03:03:54;7.50;;;4.55;;
47896;SDS011;39629;51.400;5.494;2022-07-30T03:08:56;9.65;;;4.75;;
47896;SDS011;39629;51.400;5.494;2022-07-30T03:14:01;10.80;;;5.77;;
47896;SDS011;39629;51.400;5.494;2022-07-30T03:19:04;11.40;;;5.40;;
47896;SDS011;39629;51.400;5.494;2022-07-30T03:24:08;8.95;;;4.75;;
47896;SDS011;39629;51.400;5.494;2022-07-30T03:29:13;9.73;;;4.90;;
47896;SDS011;39629;51.400;5.494;2022-07-30T03:34:18;8.15;;;4.93;;
47896;SDS011;39629;51.400;5.494;2022-07-30T03:39:20;7.47;;;4.55;;
47896;SDS011;39629;51.400;5.494;2022-07-30T03:44:24;6.78;;;4.13;;
47896;SDS011;39629;51.400;5.494;2022-07-30T03:49:28;9.68;;;6.00;;
47896;SDS011;39629;51.400;5.494;2022-07-30T03:54:30;7.40;;;4.68;;
47896;SDS011;39629;51.400;5.494;2022-07-30T03:59:53;11.13;;;5.55;;
47896;SDS011;39629;51.400;5.494;2022-07-30T04:04:55;9.47;;;5.63;;
47896;SDS011;39629;51.400;5.494;2022-07-30T04:09:57;6.28;;;4.35;;
47896;SDS011;39629;51.400;5.494;2022-07-30T04:15:16;6.43;;;4.43;;
47896;SDS011;39629;51.400;5.494;2022-07-30T04:20:19;6.07;;;4.45;;
47896;SDS011;39629;51.400;5.494;2022-07-30T04:25:23;9.35;;;4.60;;
47896;SDS011;39629;51.400;5.494;2022-07-30T04:30:27;8.45;;;5.47;;
47896;SDS011;39629;51.400;5.494;2022-07-30T04:35:30;10.60;;;4.68;;
47896;SDS011;39629;51.400;5.494;2022-07-30T04:40:50;9.98;;;5.93;;
47896;SDS011;39629;51.400;5.494;2022-07-30T04:45:53;8.52;;;5.10;;
47896;SDS011;39629;51.400;5.494;2022-07-30T04:50:56;8.93;;;4.22;;
47896;SDS011;39629;51.400;5.494;2022-07-30T04:56:02;12.05;;;6.82;;
47896;SDS011;39629;51.400;5.494;2022-07-30T05:01:07;8.32;;;5.43;;
47896;SDS011;39629;51.400;5.494;2022-07-30T05:06:10;13.38;;;7.05;;
47896;SDS011;39629;51.400;5.494;2022-07-30T05:11:14;11.25;;;6.68;;
47896;SDS011;39629;51.400;5.494;2022-07-30T05:16:18;12.40;;;6.80;;
47896;SDS011;39629;51.400;5.494;2022-07-30T05:26:22;12.15;;;6.90;;
47896;SDS011;39629;51.400;5.494;2022-07-30T05:31:27;9.07;;;6.00;;
47896;SDS011;39629;51.400;5.494;2022-07-30T05:36:33;11.00;;;6.93;;
47896;SDS011;39629;51.400;5.494;2022-07-30T05:41:35;10.10;;;6.18;;
47896;SDS011;39629;51.400;5.494;2022-07-30T05:46:45;10.90;;;6.35;;
47896;SDS011;39629;51.400;5.494;2022-07-30T05:51:47;11.50;;;5.80;;
47896;SDS011;39629;51.400;5.494;2022-07-30T05:56:49;8.88;;;5.20;;
47896;SDS011;39629;51.400;5.494;2022-07-30T06:02:00;7.70;;;4.60;;
47896;SDS011;39629;51.400;5.494;2022-07-30T06:07:11;8.13;;;4.78;;
47896;SDS011;39629;51.400;5.494;2022-07-30T06:12:13;6.57;;;4.10;;
47896;SDS011;39629;51.400;5.494;2022-07-30T06:17:17;7.57;;;3.95;;
47896;SDS011;39629;51.400;5.494;2022-07-30T06:22:41;7.35;;;3.83;;
47896;SDS011;39629;51.400;5.494;2022-07-30T06:27:51;6.60;;;3.90;;
47896;SDS011;39629;51.400;5.494;2022-07-30T06:32:54;7.70;;;3.63;;
47896;SDS011;39629;51.400;5.494;2022-07-30T06:37:56;6.82;;;3.75;;
47896;SDS011;39629;51.400;5.494;2022-07-30T06:43:01;9.95;;;3.85;;
47896;SDS011;39629;51.400;5.494;2022-07-30T06:48:23;4.90;;;3.08;;
47896;SDS011;39629;51.400;5.494;2022-07-30T06:53:26;4.72;;;2.75;;
47896;SDS011;39629;51.400;5.494;2022-07-30T06:58:46;4.55;;;2.70;;
47896;SDS011;39629;51.400;5.494;2022-07-30T07:04:09;3.95;;;2.40;;
47896;SDS011;39629;51.400;5.494;2022-07-30T07:09:13;9.45;;;2.80;;
47896;SDS011;39629;51.400;5.494;2022-07-30T07:14:30;6.05;;;2.72;;
47896;SDS011;39629;51.400;5.494;2022-07-30T07:19:34;5.05;;;2.30;;
47896;SDS011;39629;51.400;5.494;2022-07-30T07:24:35;6.07;;;2.03;;
47896;SDS011;39629;51.400;5.494;2022-07-30T07:29:40;5.43;;;2.40;;
47896;SDS011;39629;51.400;5.494;2022-07-30T07:34:46;4.13;;;2.17;;
47896;SDS011;39629;51.400;5.494;2022-07-30T07:39:48;5.40;;;2.20;;
47896;SDS011;39629;51.400;5.494;2022-07-30T07:44:50;3.55;;;1.88;;
47896;SDS011;39629;51.400;5.494;2022-07-30T07:49:54;3.58;;;1.67;;
47896;SDS011;39629;51.400;5.494;2022-07-30T07:54:56;5.47;;;2.00;;
47896;SDS011;39629;51.400;5.494;2022-07-30T07:59:58;3.80;;;1.73;;
47896;SDS011;39629;51.400;5.494;2022-07-30T08:05:02;3.53;;;1.50;;
47896;SDS011;39629;51.400;5.494;2022-07-30T08:10:07;3.40;;;1.80;;
47896;SDS011;39629;51.400;5.494;2022-07-30T08:15:28;2.92;;;1.70;;
47896;SDS011;39629;51.400;5.494;2022-07-30T08:20:51;4.18;;;2.30;;
47896;SDS011;39629;51.400;5.494;2022-07-30T08:25:58;4.55;;;2.47;;
47896;SDS011;39629;51.400;5.494;2022-07-30T08:31:01;4.03;;;2.30;;
47896;SDS011;39629;51.400;5.494;2022-07-30T08:36:04;4.05;;;2.10;;
47896;SDS011;39629;51.400;5.494;2022-07-30T08:46:08;4.05;;;1.73;;
47896;SDS011;39629;51.400;5.494;2022-07-30T08:51:26;3.45;;;1.70;;
47896;SDS011;39629;51.400;5.494;2022-07-30T08:56:51;4.25;;;1.75;;
47896;SDS011;39629;51.400;5.494;2022-07-30T09:01:54;4.60;;;1.73;;
47896;SDS011;39629;51.400;5.494;2022-07-30T09:06:57;4.90;;;1.35;;
47896;SDS011;39629;51.400;5.494;2022-07-30T09:17:00;2.30;;;1.50;;
47896;SDS011;39629;51.400;5.494;2022-07-30T09:22:05;3.97;;;1.15;;
47896;SDS011;39629;51.400;5.494;2022-07-30T09:27:42;3.28;;;1.40;;
47896;SDS011;39629;51.400;5.494;2022-07-30T09:33:05;1.90;;;1.33;;
47896;SDS011;39629;51.400;5.494;2022-07-30T09:38:11;2.92;;;1.30;;
47896;SDS011;39629;51.400;5.494;2022-07-30T09:43:25;4.18;;;1.30;;
47896;SDS011;39629;51.400;5.494;2022-07-30T09:48:30;5.75;;;1.70;;
47896;SDS011;39629;51.400;5.494;2022-07-30T09:53:34;2.83;;;1.50;;
47896;SDS011;39629;51.400;5.494;2022-07-30T09:58:37;3.03;;;1.50;;
47896;SDS011;39629;51.400;5.494;2022-07-30T10:03:41;4.13;;;1.77;;
47896;SDS011;39629;51.400;5.494;2022-07-30T10:09:03;2.75;;;1.55;;
47896;SDS011;39629;51.400;5.494;2022-07-30T10:14:05;2.17;;;1.30;;
47896;SDS011;39629;51.400;5.494;2022-07-30T10:19:07;5.40;;;1.40;;
47896;SDS011;39629;51.400;5.494;2022-07-30T10:24:45;4.45;;;1.70;;
47896;SDS011;39629;51.400;5.494;2022-07-30T10:30:07;3.80;;;1.30;;
47896;SDS011;39629;51.400;5.494;2022-07-30T10:35:09;3.03;;;1.48;;
47896;SDS011;39629;51.400;5.494;2022-07-30T10:40:23;1.98;;;1.08;;
47896;SDS011;39629;51.400;5.494;2022-07-30T10:45:29;3.65;;;1.20;;
47896;SDS011;39629;51.400;5.494;2022-07-30T10:50:49;2.08;;;1.38;;
47896;SDS011;39629;51.400;5.494;2022-07-30T11:01:17;3.95;;;1.80;;
47896;SDS011;39629;51.400;5.494;2022-07-30T11:06:25;2.92;;;1.20;;
47896;SDS011;39629;51.400;5.494;2022-07-30T11:11:45;2.00;;;1.08;;
47896;SDS011;39629;51.400;5.494;2022-07-30T11:16:59;2.22;;;1.02;;
47896;SDS011;39629;51.400;5.494;2022-07-30T11:27:36;2.65;;;1.00;;
47896;SDS011;39629;51.400;5.494;2022-07-30T11:32:39;2.47;;;0.88;;
47896;SDS011;39629;51.400;5.494;2022-07-30T11:38:00;1.48;;;0.90;;
47896;SDS011;39629;51.400;5.494;2022-07-30T11:43:18;3.35;;;1.10;;
47896;SDS011;39629;51.400;5.494;2022-07-30T11:48:22;2.47;;;1.00;;
47896;SDS011;39629;51.400;5.494;2022-07-30T11:53:24;4.20;;;1.10;;
47896;SDS011;39629;51.400;5.494;2022-07-30T11:58:27;2.10;;;0.83;;
47896;SDS011;39629;51.400;5.494;2022-07-30T12:03:31;1.90;;;1.00;;
47896;SDS011;39629;51.400;5.494;2022-07-30T12:08:39;5.25;;;1.10;;
47896;SDS011;39629;51.400;5.494;2022-07-30T12:13:43;1.70;;;0.82;;
47896;SDS011;39629;51.400;5.494;2022-07-30T12:18:59;5.80;;;0.70;;
47896;SDS011;39629;51.400;5.494;2022-07-30T12:24:02;2.17;;;1.30;;
47896;SDS011;39629;51.400;5.494;2022-07-30T12:29:08;4.38;;;1.00;;
47896;SDS011;39629;51.400;5.494;2022-07-30T12:34:19;2.50;;;1.23;;
47896;SDS011;39629;51.400;5.494;2022-07-30T12:39:23;3.88;;;1.10;;
47896;SDS011;39629;51.400;5.494;2022-07-30T12:44:37;2.13;;;1.20;;
47896;SDS011;39629;51.400;5.494;2022-07-30T12:49:40;2.33;;;0.93;;
47896;SDS011;39629;51.400;5.494;2022-07-30T12:54:42;2.13;;;1.00;;
47896;SDS011;39629;51.400;5.494;2022-07-30T12:59:45;2.15;;;1.35;;
47896;SDS011;39629;51.400;5.494;2022-07-30T13:04:49;3.08;;;1.20;;
47896;SDS011;39629;51.400;5.494;2022-07-30T13:10:04;2.95;;;1.30;;
47896;SDS011;39629;51.400;5.494;2022-07-30T13:15:15;1.77;;;1.10;;
47896;SDS011;39629;51.400;5.494;2022-07-30T13:20:17;1.95;;;1.02;;
47896;SDS011;39629;51.400;5.494;2022-07-30T13:30:22;2.70;;;1.05;;
47896;SDS011;39629;51.400;5.494;2022-07-30T13:35:24;3.63;;;1.10;;
47896;SDS011;39629;51.400;5.494;2022-07-30T13:40:26;3.65;;;1.17;;
47896;SDS011;39629;51.400;5.494;2022-07-30T13:45:33;5.88;;;1.40;;
47896;SDS011;39629;51.400;5.494;2022-07-30T13:50:35;3.88;;;1.38;;
47896;SDS011;39629;51.400;5.494;2022-07-30T13:55:37;2.20;;;1.40;;
47896;SDS011;39629;51.400;5.494;2022-07-30T14:00:41;2.10;;;1.30;;
47896;SDS011;39629;51.400;5.494;2022-07-30T14:05:44;2.75;;;1.13;;
47896;SDS011;39629;51.400;5.494;2022-07-30T14:10:46;3.40;;;0.95;;
47896;SDS011;39629;51.400;5.494;2022-07-30T14:15:49;2.67;;;1.00;;
47896;SDS011;39629;51.400;5.494;2022-07-30T14:20:50;3.00;;;1.10;;
47896;SDS011;39629;51.400;5.494;2022-07-30T14:25:52;1.98;;;1.00;;
47896;SDS011;39629;51.400;5.494;2022-07-30T14:30:55;3.70;;;1.20;;
47896;SDS011;39629;51.400;5.494;2022-07-30T14:35:57;3.83;;;1.00;;
47896;SDS011;39629;51.400;5.494;2022-07-30T14:40:59;5.55;;;1.08;;
47896;SDS011;39629;51.400;5.494;2022-07-30T14:46:02;2.00;;;1.00;;
47896;SDS011;39629;51.400;5.494;2022-07-30T14:51:03;2.25;;;1.02;;
47896;SDS011;39629;51.400;5.494;2022-07-30T14:56:05;2.55;;;1.00;;
47896;SDS011;39629;51.400;5.494;2022-07-30T15:01:08;3.58;;;1.17;;
47896;SDS011;39629;51.400;5.494;2022-07-30T15:06:10;2.15;;;0.82;;
47896;SDS011;39629;51.400;5.494;2022-07-30T15:11:14;2.90;;;0.98;;
47896;SDS011;39629;51.400;5.494;2022-07-30T15:21:19;5.55;;;3.95;;
47896;SDS011;39629;51.400;5.494;2022-07-30T15:26:20;3.72;;;1.20;;
47896;SDS011;39629;51.400;5.494;2022-07-30T15:31:24;3.53;;;0.95;;
47896;SDS011;39629;51.400;5.494;2022-07-30T15:36:26;2.40;;;1.00;;
47896;SDS011;39629;51.400;5.494;2022-07-30T15:41:27;2.75;;;1.10;;
47896;SDS011;39629;51.400;5.494;2022-07-30T15:46:30;2.85;;;1.20;;
47896;SDS011;39629;51.400;5.494;2022-07-30T15:51:32;2.92;;;1.35;;
47896;SDS011;39629;51.400;5.494;2022-07-30T15:56:34;8.80;;;4.70;;
47896;SDS011;39629;51.400;5.494;2022-07-30T16:01:37;2.87;;;1.77;;
47896;SDS011;39629;51.400;5.494;2022-07-30T16:06:39;2.42;;;1.30;;
47896;SDS011;39629;51.400;5.494;2022-07-30T16:11:41;3.33;;;1.52;;
47896;SDS011;39629;51.400;5.494;2022-07-30T16:16:44;2.20;;;1.60;;
47896;SDS011;39629;51.400;5.494;2022-07-30T16:21:46;4.05;;;1.20;;
47896;SDS011;39629;51.400;5.494;2022-07-30T16:26:48;2.55;;;1.00;;
47896;SDS011;39629;51.400;5.494;2022-07-30T16:31:51;2.63;;;1.10;;
47896;SDS011;39629;51.400;5.494;2022-07-30T16:36:52;20.02;;;12.90;;
47896;SDS011;39629;51.400;5.494;2022-07-30T16:41:54;3.25;;;1.30;;
47896;SDS011;39629;51.400;5.494;2022-07-30T16:46:57;1.95;;;1.23;;
47896;SDS011;39629;51.400;5.494;2022-07-30T16:51:58;3.90;;;1.20;;
47896;SDS011;39629;51.400;5.494;2022-07-30T16:57:00;3.95;;;1.40;;
47896;SDS011;39629;51.400;5.494;2022-07-30T17:02:03;2.57;;;1.47;;
47896;SDS011;39629;51.400;5.494;2022-07-30T17:07:05;2.92;;;1.60;;
47896;SDS011;39629;51.400;5.494;2022-07-30T17:12:07;3.33;;;1.35;;
47896;SDS011;39629;51.400;5.494;2022-07-30T17:17:10;3.08;;;1.40;;
47896;SDS011;39629;51.400;5.494;2022-07-30T17:22:12;3.92;;;1.60;;
47896;SDS011;39629;51.400;5.494;2022-07-30T17:27:14;2.58;;;1.20;;
47896;SDS011;39629;51.400;5.494;2022-07-30T17:32:17;2.60;;;1.20;;
47896;SDS011;39629;51.400;5.494;2022-07-30T17:37:19;3.55;;;1.10;;
47896;SDS011;39629;51.400;5.494;2022-07-30T17:42:20;2.15;;;1.10;;
47896;SDS011;39629;51.400;5.494;2022-07-30T17:47:25;2.33;;;1.20;;
47896;SDS011;39629;51.400;5.494;2022-07-30T17:52:27;2.75;;;1.20;;
47896;SDS011;39629;51.400;5.494;2022-07-30T17:57:28;2.83;;;1.20;;
47896;SDS011;39629;51.400;5.494;2022-07-30T18:02:31;2.58;;;1.10;;
47896;SDS011;39629;51.400;5.494;2022-07-30T18:12:35;2.40;;;1.15;;
47896;SDS011;39629;51.400;5.494;2022-07-30T18:17:38;3.38;;;1.30;;
47896;SDS011;39629;51.400;5.494;2022-07-30T18:22:39;4.45;;;1.33;;
47896;SDS011;39629;51.400;5.494;2022-07-30T18:27:41;4.60;;;1.30;;
47896;SDS011;39629;51.400;5.494;2022-07-30T18:32:44;1.80;;;1.30;;
47896;SDS011;39629;51.400;5.494;2022-07-30T18:37:46;1.90;;;1.00;;
47896;SDS011;39629;51.400;5.494;2022-07-30T18:42:47;3.95;;;1.15;;
47896;SDS011;39629;51.400;5.494;2022-07-30T18:47:50;2.85;;;1.27;;
47896;SDS011;39629;51.400;5.494;2022-07-30T18:52:52;4.05;;;1.20;;
47896;SDS011;39629;51.400;5.494;2022-07-30T18:57:54;3.70;;;1.30;;
47896;SDS011;39629;51.400;5.494;2022-07-30T19:02:57;2.00;;;1.10;;
47896;SDS011;39629;51.400;5.494;2022-07-30T19:07:59;1.83;;;1.30;;
47896;SDS011;39629;51.400;5.494;2022-07-30T19:13:01;6.10;;;1.30;;
47896;SDS011;39629;51.400;5.494;2022-07-30T19:18:04;2.22;;;1.30;;
47896;SDS011;39629;51.400;5.494;2022-07-30T19:23:06;3.30;;;1.35;;
47896;SDS011;39629;51.400;5.494;2022-07-30T19:28:08;5.05;;;1.52;;
47896;SDS011;39629;51.400;5.494;2022-07-30T19:33:13;7.55;;;1.60;;
47896;SDS011;39629;51.400;5.494;2022-07-30T19:38:15;3.30;;;1.40;;
47896;SDS011;39629;51.400;5.494;2022-07-30T19:43:17;2.15;;;1.40;;
47896;SDS011;39629;51.400;5.494;2022-07-30T19:48:20;2.78;;;1.30;;
47896;SDS011;39629;51.400;5.494;2022-07-30T19:53:21;3.13;;;1.50;;
47896;SDS011;39629;51.400;5.494;2022-07-30T19:58:23;6.53;;;5.40;;
47896;SDS011;39629;51.400;5.494;2022-07-30T20:03:26;12.50;;;9.32;;
47896;SDS011;39629;51.400;5.494;2022-07-30T20:08:29;5.07;;;3.60;;
47896;SDS011;39629;51.400;5.494;2022-07-30T20:13:31;3.95;;;2.53;;
47896;SDS011;39629;51.400;5.494;2022-07-30T20:18:34;2.88;;;2.05;;
47896;SDS011;39629;51.400;5.494;2022-07-30T20:23:36;2.95;;;1.95;;
47896;SDS011;39629;51.400;5.494;2022-07-30T20:28:38;2.80;;;1.80;;
47896;SDS011;39629;51.400;5.494;2022-07-30T20:33:41;6.00;;;2.47;;
47896;SDS011;39629;51.400;5.494;2022-07-30T20:38:43;2.47;;;1.90;;
47896;SDS011;39629;51.400;5.494;2022-07-30T20:43:46;2.47;;;2.03;;
47896;SDS011;39629;51.400;5.494;2022-07-30T20:48:49;4.93;;;2.50;;
47896;SDS011;39629;51.400;5.494;2022-07-30T20:53:51;3.65;;;2.22;;
47896;SDS011;39629;51.400;5.494;2022-07-30T20:58:52;3.00;;;2.00;;
47896;SDS011;39629;51.400;5.494;2022-07-30T21:03:55;3.53;;;2.30;;
47896;SDS011;39629;51.400;5.494;2022-07-30T21:08:57;3.63;;;2.40;;
47896;SDS011;39629;51.400;5.494;2022-07-30T21:13:59;3.30;;;2.75;;
47896;SDS011;39629;51.400;5.494;2022-07-30T21:19:02;4.55;;;1.98;;
47896;SDS011;39629;51.400;5.494;2022-07-30T21:24:04;5.77;;;2.10;;
47896;SDS011;39629;51.400;5.494;2022-07-30T21:29:06;3.05;;;1.83;;
47896;SDS011;39629;51.400;5.494;2022-07-30T21:34:09;4.45;;;2.20;;
47896;SDS011;39629;51.400;5.494;2022-07-30T21:39:11;3.47;;;2.05;;
47896;SDS011;39629;51.400;5.494;2022-07-30T21:44:13;5.40;;;2.20;;
47896;SDS011;39629;51.400;5.494;2022-07-30T21:49:16;4.35;;;2.40;;
47896;SDS011;39629;51.400;5.494;2022-07-30T21:54:17;3.00;;;2.20;;
47896;SDS011;39629;51.400;5.494;2022-07-30T21:59:19;6.05;;;2.35;;
47896;SDS011;39629;51.400;5.494;2022-07-30T22:04:22;4.95;;;2.55;;
47896;SDS011;39629;51.400;5.494;2022-07-30T22:09:24;3.33;;;2.20;;
47896;SDS011;39629;51.400;5.494;2022-07-30T22:14:25;4.03;;;2.40;;
47896;SDS011;39629;51.400;5.494;2022-07-30T22:19:28;3.28;;;2.40;;
47896;SDS011;39629;51.400;5.494;2022-07-30T22:24:30;5.00;;;2.67;;
47896;SDS011;39629;51.400;5.494;2022-07-30T22:29:32;3.80;;;2.20;;
47896;SDS011;39629;51.400;5.494;2022-07-30T22:34:38;5.35;;;2.60;;
47896;SDS011;39629;51.400;5.494;2022-07-30T22:39:40;6.22;;;2.72;;
47896;SDS011;39629;51.400;5.494;2022-07-30T22:44:41;3.88;;;2.35;;
47896;SDS011;39629;51.400;5.494;2022-07-30T22:49:44;3.63;;;2.75;;
47896;SDS011;39629;51.400;5.494;2022-07-30T22:54:46;4.23;;;2.67;;
47896;SDS011;39629;51.400;5.494;2022-07-30T22:59:48;3.10;;;2.10;;
47896;SDS011;39629;51.400;5.494;2022-07-30T23:04:51;4.75;;;2.53;;
47896;SDS011;39629;51.400;5.494;2022-07-30T23:09:52;4.60;;;2.72;;
47896;SDS011;39629;51.400;5.494;2022-07-30T23:14:54;5.13;;;2.92;;
47896;SDS011;39629;51.400;5.494;2022-07-30T23:19:57;3.70;;;2.92;;
47896;SDS011;39629;51.400;5.494;2022-07-30T23:24:58;4.82;;;3.53;;
47896;SDS011;39629;51.400;5.494;2022-07-30T23:30:00;7.22;;;4.57;;
47896;SDS011;39629;51.400;5.494;2022-07-30T23:35:04;5.90;;;3.80;;
47896;SDS011;39629;51.400;5.494;2022-07-30T23:45:09;4.53;;;3.20;;
47896;SDS011;39629;51.400;5.494;2022-07-30T23:50:12;5.32;;;3.00;;
47896;SDS011;39629;51.400;5.494;2022-07-30T23:55:14;4.03;;;3.00;;
